sensor_id;sensor_type;location;lat;lon;timestamp;pressure;altitude;pressure_sealevel;temperature;humidity
65376;BME280;51976;47.332;9.404;2024-02-15T00:02:07;93156.88;;;6.14;100.00
65376;BME280;51976;47.332;9.404;2024-02-15T00:04:32;93198.84;;;6.30;100.00
65376;BME280;51976;47.332;9.404;2024-02-15T00:06:59;93203.75;;;6.16;100.00
65376;BME280;51976;47.332;9.404;2024-02-15T00:09:25;93199.63;;;6.08;100.00
65376;BME280;51976;47.332;9.404;2024-02-15T00:11:50;93237.88;;;6.42;100.00
65376;BME280;51976;47.332;9.404;2024-02-15T00:14:16;93194.09;;;6.15;100.00
65376;BME280;51976;47.332;9.404;2024-02-15T00:16:42;93245.66;;;6.44;100.00
65376;BME280;51976;47.332;9.404;2024-02-15T00:19:07;93248.66;;;6.48;100.00
65376;BME280;51976;47.332;9.404;2024-02-15T00:21:33;93254.56;;;6.50;100.00
65376;BME280;51976;47.332;9.404;2024-02-15T00:23:58;93172.09;;;5.91;100.00
65376;BME280;51976;47.332;9.404;2024-02-15T00:26:26;93249.00;;;6.34;100.00
65376;BME280;51976;47.332;9.404;2024-02-15T00:28:51;93250.38;;;6.37;100.00
65376;BME280;51976;47.332;9.404;2024-02-15T00:31:17;93189.59;;;5.99;100.00
65376;BME280;51976;47.332;9.404;2024-02-15T00:33:44;93249.06;;;6.39;100.00
65376;BME280;51976;47.332;9.404;2024-02-15T00:36:10;93249.06;;;6.39;100.00
65376;BME280;51976;47.332;9.404;2024-02-15T00:38:35;93182.75;;;6.08;100.00
65376;BME280;51976;47.332;9.404;2024-02-15T00:41:00;93185.31;;;5.98;100.00
65376;BME280;51976;47.332;9.404;2024-02-15T00:43:26;93220.22;;;6.25;100.00
65376;BME280;51976;47.332;9.404;2024-02-15T00:45:52;93188.03;;;6.03;100.00
65376;BME280;51976;47.332;9.404;2024-02-15T00:48:18;93205.16;;;6.02;100.00
65376;BME280;51976;47.332;9.404;2024-02-15T00:50:43;93252.47;;;6.35;100.00
65376;BME280;51976;47.332;9.404;2024-02-15T00:53:09;93252.16;;;6.31;100.00
65376;BME280;51976;47.332;9.404;2024-02-15T00:55:34;93208.25;;;5.94;100.00
65376;BME280;51976;47.332;9.404;2024-02-15T00:58:00;93166.66;;;5.69;100.00
65376;BME280;51976;47.332;9.404;2024-02-15T01:00:25;93170.72;;;5.72;100.00
65376;BME280;51976;47.332;9.404;2024-02-15T01:02:51;93243.56;;;6.29;100.00
65376;BME280;51976;47.332;9.404;2024-02-15T01:05:18;93165.81;;;5.86;100.00
65376;BME280;51976;47.332;9.404;2024-02-15T01:07:44;93245.38;;;6.24;100.00
65376;BME280;51976;47.332;9.404;2024-02-15T01:10:09;93236.22;;;6.20;100.00
65376;BME280;51976;47.332;9.404;2024-02-15T01:12:34;93239.00;;;6.30;100.00
65376;BME280;51976;47.332;9.404;2024-02-15T01:15:00;93152.16;;;5.65;100.00
65376;BME280;51976;47.332;9.404;2024-02-15T01:17:25;93240.09;;;6.12;100.00
65376;BME280;51976;47.332;9.404;2024-02-15T01:19:51;93216.03;;;5.95;100.00
65376;BME280;51976;47.332;9.404;2024-02-15T01:22:17;93171.44;;;5.67;100.00
65376;BME280;51976;47.332;9.404;2024-02-15T01:24:43;93232.56;;;6.09;100.00
65376;BME280;51976;47.332;9.404;2024-02-15T01:27:08;93184.00;;;5.50;100.00
65376;BME280;51976;47.332;9.404;2024-02-15T01:29:35;93245.75;;;5.82;100.00
65376;BME280;51976;47.332;9.404;2024-02-15T01:32:00;93223.22;;;5.78;100.00
65376;BME280;51976;47.332;9.404;2024-02-15T01:34:27;93211.09;;;5.70;100.00
65376;BME280;51976;47.332;9.404;2024-02-15T01:36:53;93225.59;;;5.91;100.00
65376;BME280;51976;47.332;9.404;2024-02-15T01:39:18;93247.63;;;5.82;100.00
65376;BME280;51976;47.332;9.404;2024-02-15T01:41:47;93205.94;;;5.52;100.00
65376;BME280;51976;47.332;9.404;2024-02-15T01:44:13;93239.03;;;5.79;100.00
65376;BME280;51976;47.332;9.404;2024-02-15T01:46:39;93152.22;;;5.20;100.00
65376;BME280;51976;47.332;9.404;2024-02-15T01:49:05;93176.72;;;5.46;100.00
65376;BME280;51976;47.332;9.404;2024-02-15T01:51:33;93205.06;;;5.63;100.00
65376;BME280;51976;47.332;9.404;2024-02-15T01:54:01;93156.63;;;5.43;100.00
65376;BME280;51976;47.332;9.404;2024-02-15T01:56:27;93227.47;;;5.91;100.00
65376;BME280;51976;47.332;9.404;2024-02-15T01:58:53;93228.00;;;5.76;100.00
65376;BME280;51976;47.332;9.404;2024-02-15T02:01:19;93158.22;;;5.10;100.00
65376;BME280;51976;47.332;9.404;2024-02-15T02:03:46;93167.47;;;5.20;100.00
65376;BME280;51976;47.332;9.404;2024-02-15T02:06:12;93166.91;;;5.18;100.00
65376;BME280;51976;47.332;9.404;2024-02-15T02:08:37;93126.28;;;4.87;100.00
65376;BME280;51976;47.332;9.404;2024-02-15T02:11:03;93218.50;;;5.52;100.00
65376;BME280;51976;47.332;9.404;2024-02-15T02:13:29;93160.41;;;5.14;100.00
65376;BME280;51976;47.332;9.404;2024-02-15T02:15:54;93229.19;;;5.18;100.00
65376;BME280;51976;47.332;9.404;2024-02-15T02:18:21;93139.47;;;4.65;100.00
65376;BME280;51976;47.332;9.404;2024-02-15T02:20:46;93142.13;;;4.77;100.00
65376;BME280;51976;47.332;9.404;2024-02-15T02:23:15;93208.16;;;5.10;100.00
65376;BME280;51976;47.332;9.404;2024-02-15T02:25:44;93225.03;;;5.27;100.00
65376;BME280;51976;47.332;9.404;2024-02-15T02:28:10;93219.94;;;5.26;100.00
65376;BME280;51976;47.332;9.404;2024-02-15T02:30:36;93223.75;;;5.30;100.00
65376;BME280;51976;47.332;9.404;2024-02-15T02:33:01;93123.41;;;4.60;100.00
65376;BME280;51976;47.332;9.404;2024-02-15T02:35:27;93215.75;;;5.01;100.00
65376;BME280;51976;47.332;9.404;2024-02-15T02:37:55;93214.13;;;5.00;100.00
65376;BME280;51976;47.332;9.404;2024-02-15T02:40:20;93217.25;;;5.09;100.00
65376;BME280;51976;47.332;9.404;2024-02-15T02:42:53;93210.50;;;5.06;100.00
65376;BME280;51976;47.332;9.404;2024-02-15T02:45:21;93216.63;;;5.19;100.00
65376;BME280;51976;47.332;9.404;2024-02-15T02:47:48;93221.97;;;5.19;100.00
65376;BME280;51976;47.332;9.404;2024-02-15T02:50:13;93215.81;;;5.18;100.00
65376;BME280;51976;47.332;9.404;2024-02-15T02:52:39;93120.75;;;4.49;100.00
65376;BME280;51976;47.332;9.404;2024-02-15T02:55:05;93138.63;;;4.48;100.00
65376;BME280;51976;47.332;9.404;2024-02-15T02:57:35;93209.75;;;4.94;100.00
65376;BME280;51976;47.332;9.404;2024-02-15T03:00:06;93141.78;;;4.45;100.00
65376;BME280;51976;47.332;9.404;2024-02-15T03:02:34;93195.16;;;4.85;100.00
65376;BME280;51976;47.332;9.404;2024-02-15T03:05:02;93203.34;;;4.95;100.00
65376;BME280;51976;47.332;9.404;2024-02-15T03:07:28;93201.06;;;4.87;100.00
65376;BME280;51976;47.332;9.404;2024-02-15T03:09:53;93192.72;;;4.84;100.00
65376;BME280;51976;47.332;9.404;2024-02-15T03:12:18;93204.47;;;4.83;100.00
65376;BME280;51976;47.332;9.404;2024-02-15T03:14:44;93131.72;;;4.35;100.00
65376;BME280;51976;47.332;9.404;2024-02-15T03:17:10;93199.56;;;4.51;100.00
65376;BME280;51976;47.332;9.404;2024-02-15T03:19:36;93195.78;;;4.35;100.00
65376;BME280;51976;47.332;9.404;2024-02-15T03:22:01;93195.03;;;4.52;100.00
65376;BME280;51976;47.332;9.404;2024-02-15T03:24:27;93197.34;;;4.60;100.00
65376;BME280;51976;47.332;9.404;2024-02-15T03:26:52;93127.56;;;4.28;100.00
65376;BME280;51976;47.332;9.404;2024-02-15T03:29:20;93126.69;;;4.39;100.00
65376;BME280;51976;47.332;9.404;2024-02-15T03:31:46;93165.41;;;4.65;100.00
65376;BME280;51976;47.332;9.404;2024-02-15T03:34:14;93133.06;;;4.50;100.00
65376;BME280;51976;47.332;9.404;2024-02-15T03:36:41;93193.16;;;4.92;100.00
65376;BME280;51976;47.332;9.404;2024-02-15T03:39:06;93170.34;;;4.73;100.00
65376;BME280;51976;47.332;9.404;2024-02-15T03:41:33;93163.78;;;4.64;100.00
65376;BME280;51976;47.332;9.404;2024-02-15T03:43:59;93188.81;;;4.74;100.00
65376;BME280;51976;47.332;9.404;2024-02-15T03:46:25;93107.50;;;4.25;100.00
65376;BME280;51976;47.332;9.404;2024-02-15T03:48:51;93186.19;;;4.63;100.00
65376;BME280;51976;47.332;9.404;2024-02-15T03:51:19;93125.38;;;4.13;100.00
65376;BME280;51976;47.332;9.404;2024-02-15T03:53:45;93176.13;;;4.53;100.00
65376;BME280;51976;47.332;9.404;2024-02-15T03:56:11;93153.63;;;4.09;100.00
65376;BME280;51976;47.332;9.404;2024-02-15T03:58:38;93181.00;;;4.45;100.00
65376;BME280;51976;47.332;9.404;2024-02-15T04:01:03;93102.34;;;4.07;100.00
65376;BME280;51976;47.332;9.404;2024-02-15T04:03:31;93164.34;;;4.37;100.00
65376;BME280;51976;47.332;9.404;2024-02-15T04:05:57;93111.97;;;4.08;100.00
65376;BME280;51976;47.332;9.404;2024-02-15T04:08:23;93163.84;;;4.40;100.00
65376;BME280;51976;47.332;9.404;2024-02-15T04:10:49;93105.13;;;4.00;100.00
65376;BME280;51976;47.332;9.404;2024-02-15T04:13:14;93161.75;;;4.42;100.00
65376;BME280;51976;47.332;9.404;2024-02-15T04:15:40;93173.09;;;4.50;100.00
65376;BME280;51976;47.332;9.404;2024-02-15T04:18:07;93163.75;;;4.35;100.00
65376;BME280;51976;47.332;9.404;2024-02-15T04:20:33;93115.09;;;4.05;100.00
65376;BME280;51976;47.332;9.404;2024-02-15T04:22:59;93103.09;;;3.79;100.00
65376;BME280;51976;47.332;9.404;2024-02-15T04:25:25;93128.00;;;3.96;100.00
65376;BME280;51976;47.332;9.404;2024-02-15T04:27:53;93170.03;;;4.29;100.00
65376;BME280;51976;47.332;9.404;2024-02-15T04:30:18;93177.38;;;3.87;100.00
65376;BME280;51976;47.332;9.404;2024-02-15T04:32:45;93107.50;;;3.62;100.00
65376;BME280;51976;47.332;9.404;2024-02-15T04:35:10;93144.34;;;4.00;100.00
65376;BME280;51976;47.332;9.404;2024-02-15T04:37:37;93185.00;;;4.19;100.00
65376;BME280;51976;47.332;9.404;2024-02-15T04:40:03;93177.50;;;3.92;100.00
65376;BME280;51976;47.332;9.404;2024-02-15T04:42:39;93073.00;;;3.20;100.00
65376;BME280;51976;47.332;9.404;2024-02-15T04:45:05;93090.63;;;3.21;100.00
65376;BME280;51976;47.332;9.404;2024-02-15T04:47:33;93133.00;;;3.58;100.00
65376;BME280;51976;47.332;9.404;2024-02-15T04:49:59;93100.00;;;3.47;100.00
65376;BME280;51976;47.332;9.404;2024-02-15T04:52:24;93158.25;;;4.02;100.00
65376;BME280;51976;47.332;9.404;2024-02-15T04:54:50;93174.47;;;4.12;100.00
65376;BME280;51976;47.332;9.404;2024-02-15T04:57:15;93102.88;;;3.57;100.00
65376;BME280;51976;47.332;9.404;2024-02-15T04:59:42;93167.88;;;4.03;100.00
65376;BME280;51976;47.332;9.404;2024-02-15T05:02:12;93080.88;;;3.50;100.00
65376;BME280;51976;47.332;9.404;2024-02-15T05:04:38;93113.53;;;3.81;100.00
65376;BME280;51976;47.332;9.404;2024-02-15T05:07:03;93100.78;;;3.59;100.00
65376;BME280;51976;47.332;9.404;2024-02-15T05:09:29;93112.16;;;3.66;100.00
65376;BME280;51976;47.332;9.404;2024-02-15T05:11:59;93148.75;;;3.59;100.00
65376;BME280;51976;47.332;9.404;2024-02-15T05:14:24;93173.25;;;3.80;100.00
65376;BME280;51976;47.332;9.404;2024-02-15T05:16:51;93146.81;;;3.78;100.00
65376;BME280;51976;47.332;9.404;2024-02-15T05:19:17;93176.94;;;4.02;100.00
65376;BME280;51976;47.332;9.404;2024-02-15T05:21:46;93092.44;;;3.56;100.00
65376;BME280;51976;47.332;9.404;2024-02-15T05:24:15;93167.75;;;3.98;100.00
65376;BME280;51976;47.332;9.404;2024-02-15T05:26:45;93168.69;;;3.92;100.00
65376;BME280;51976;47.332;9.404;2024-02-15T05:29:16;93170.81;;;3.78;100.00
65376;BME280;51976;47.332;9.404;2024-02-15T05:31:42;93177.53;;;3.81;100.00
65376;BME280;51976;47.332;9.404;2024-02-15T05:34:07;93097.69;;;3.39;100.00
65376;BME280;51976;47.332;9.404;2024-02-15T05:36:33;93088.63;;;3.40;100.00
65376;BME280;51976;47.332;9.404;2024-02-15T05:38:59;93133.34;;;3.73;100.00
65376;BME280;51976;47.332;9.404;2024-02-15T05:41:25;93169.03;;;3.95;100.00
65376;BME280;51976;47.332;9.404;2024-02-15T05:43:50;93098.25;;;3.41;100.00
65376;BME280;51976;47.332;9.404;2024-02-15T05:46:19;93099.28;;;3.40;100.00
65376;BME280;51976;47.332;9.404;2024-02-15T05:48:46;93091.31;;;3.40;100.00
65376;BME280;51976;47.332;9.404;2024-02-15T05:51:12;93097.91;;;3.49;100.00
65376;BME280;51976;47.332;9.404;2024-02-15T05:53:37;93159.66;;;3.93;100.00
65376;BME280;51976;47.332;9.404;2024-02-15T05:56:04;93091.75;;;3.37;100.00
65376;BME280;51976;47.332;9.404;2024-02-15T05:58:31;93135.91;;;3.45;100.00
65376;BME280;51976;47.332;9.404;2024-02-15T06:00:58;93125.81;;;3.35;100.00
65376;BME280;51976;47.332;9.404;2024-02-15T06:03:27;93113.19;;;3.30;100.00
65376;BME280;51976;47.332;9.404;2024-02-15T06:05:53;93156.88;;;3.64;100.00
65376;BME280;51976;47.332;9.404;2024-02-15T06:08:26;93077.28;;;3.10;100.00
65376;BME280;51976;47.332;9.404;2024-02-15T06:10:52;93161.19;;;3.65;100.00
65376;BME280;51976;47.332;9.404;2024-02-15T06:13:18;93148.19;;;3.57;100.00
65376;BME280;51976;47.332;9.404;2024-02-15T06:15:44;93159.88;;;3.56;100.00
65376;BME280;51976;47.332;9.404;2024-02-15T06:18:12;93161.28;;;3.24;100.00
65376;BME280;51976;47.332;9.404;2024-02-15T06:20:40;93149.22;;;3.33;100.00
65376;BME280;51976;47.332;9.404;2024-02-15T06:23:06;93163.72;;;3.60;100.00
65376;BME280;51976;47.332;9.404;2024-02-15T06:25:33;93099.63;;;3.32;100.00
65376;BME280;51976;47.332;9.404;2024-02-15T06:27:58;93140.09;;;3.52;100.00
65376;BME280;51976;47.332;9.404;2024-02-15T06:30:28;93147.59;;;3.32;100.00
65376;BME280;51976;47.332;9.404;2024-02-15T06:33:13;93156.50;;;3.14;100.00
65376;BME280;51976;47.332;9.404;2024-02-15T06:35:59;93101.25;;;2.98;100.00
65376;BME280;51976;47.332;9.404;2024-02-15T06:38:44;93168.13;;;3.43;100.00
65376;BME280;51976;47.332;9.404;2024-02-15T06:41:29;93168.69;;;3.22;100.00
65376;BME280;51976;47.332;9.404;2024-02-15T06:43:55;93161.50;;;3.22;100.00
65376;BME280;51976;47.332;9.404;2024-02-15T06:46:21;93086.28;;;2.85;100.00
65376;BME280;51976;47.332;9.404;2024-02-15T06:48:46;93163.50;;;3.50;100.00
65376;BME280;51976;47.332;9.404;2024-02-15T06:51:12;93168.25;;;3.60;100.00
65376;BME280;51976;47.332;9.404;2024-02-15T06:53:40;93068.81;;;2.89;100.00
65376;BME280;51976;47.332;9.404;2024-02-15T06:56:05;93140.09;;;3.40;100.00
65376;BME280;51976;47.332;9.404;2024-02-15T06:58:34;93168.97;;;3.55;100.00
65376;BME280;51976;47.332;9.404;2024-02-15T07:00:59;93157.56;;;3.60;100.00
65376;BME280;51976;47.332;9.404;2024-02-15T07:03:24;93136.47;;;3.35;100.00
65376;BME280;51976;47.332;9.404;2024-02-15T07:05:50;93072.53;;;2.88;100.00
65376;BME280;51976;47.332;9.404;2024-02-15T07:08:15;93057.88;;;2.56;100.00
65376;BME280;51976;47.332;9.404;2024-02-15T07:10:41;93098.03;;;2.54;100.00
65376;BME280;51976;47.332;9.404;2024-02-15T07:13:06;93115.13;;;2.88;100.00
65376;BME280;51976;47.332;9.404;2024-02-15T07:15:33;93135.91;;;3.33;100.00
65376;BME280;51976;47.332;9.404;2024-02-15T07:18:04;93053.97;;;2.82;100.00
65376;BME280;51976;47.332;9.404;2024-02-15T07:20:31;93091.94;;;2.77;100.00
65376;BME280;51976;47.332;9.404;2024-02-15T07:22:57;93093.81;;;2.88;100.00
65376;BME280;51976;47.332;9.404;2024-02-15T07:25:23;93091.88;;;3.19;100.00
65376;BME280;51976;47.332;9.404;2024-02-15T07:27:48;93146.69;;;3.73;100.00
65376;BME280;51976;47.332;9.404;2024-02-15T07:30:14;93073.22;;;3.42;100.00
65376;BME280;51976;47.332;9.404;2024-02-15T07:32:40;93049.25;;;3.42;100.00
65376;BME280;51976;47.332;9.404;2024-02-15T07:35:05;93087.09;;;3.79;100.00
65376;BME280;51976;47.332;9.404;2024-02-15T07:37:33;93125.06;;;4.10;100.00
65376;BME280;51976;47.332;9.404;2024-02-15T07:39:59;93132.22;;;4.21;100.00
65376;BME280;51976;47.332;9.404;2024-02-15T07:42:24;93065.66;;;3.74;100.00
65376;BME280;51976;47.332;9.404;2024-02-15T07:44:51;93044.44;;;3.67;100.00
65376;BME280;51976;47.332;9.404;2024-02-15T07:47:18;93096.44;;;3.93;100.00
65376;BME280;51976;47.332;9.404;2024-02-15T07:49:46;93113.41;;;4.27;100.00
65376;BME280;51976;47.332;9.404;2024-02-15T07:52:11;93117.25;;;4.60;100.00
65376;BME280;51976;47.332;9.404;2024-02-15T07:54:39;93105.09;;;4.69;100.00
65376;BME280;51976;47.332;9.404;2024-02-15T07:57:04;93029.66;;;4.45;100.00
65376;BME280;51976;47.332;9.404;2024-02-15T07:59:30;93063.44;;;4.68;100.00
65376;BME280;51976;47.332;9.404;2024-02-15T08:01:55;93116.28;;;5.11;100.00
65376;BME280;51976;47.332;9.404;2024-02-15T08:04:21;93112.63;;;5.34;100.00
65376;BME280;51976;47.332;9.404;2024-02-15T08:06:48;93078.13;;;5.32;100.00
65376;BME280;51976;47.332;9.404;2024-02-15T08:09:15;93073.25;;;5.46;100.00
65376;BME280;51976;47.332;9.404;2024-02-15T08:11:43;93057.81;;;5.53;100.00
65376;BME280;51976;47.332;9.404;2024-02-15T08:14:09;93020.88;;;5.50;100.00
65376;BME280;51976;47.332;9.404;2024-02-15T08:16:36;93087.47;;;6.07;100.00
65376;BME280;51976;47.332;9.404;2024-02-15T08:19:03;93027.28;;;5.88;100.00
65376;BME280;51976;47.332;9.404;2024-02-15T08:21:31;93081.63;;;6.32;100.00
65376;BME280;51976;47.332;9.404;2024-02-15T08:24:03;93027.44;;;5.98;100.00
65376;BME280;51976;47.332;9.404;2024-02-15T08:26:38;93066.13;;;6.12;100.00
65376;BME280;51976;47.332;9.404;2024-02-15T08:29:04;93009.28;;;5.83;100.00
65376;BME280;51976;47.332;9.404;2024-02-15T08:31:31;93059.13;;;6.33;100.00
65376;BME280;51976;47.332;9.404;2024-02-15T08:33:57;93052.72;;;6.56;100.00
65376;BME280;51976;47.332;9.404;2024-02-15T08:36:22;93050.22;;;6.76;100.00
65376;BME280;51976;47.332;9.404;2024-02-15T08:38:49;93046.88;;;6.91;100.00
65376;BME280;51976;47.332;9.404;2024-02-15T08:41:15;93039.28;;;7.14;100.00
65376;BME280;51976;47.332;9.404;2024-02-15T08:43:43;93029.97;;;7.22;100.00
65376;BME280;51976;47.332;9.404;2024-02-15T08:46:08;92965.50;;;7.02;100.00
65376;BME280;51976;47.332;9.404;2024-02-15T08:48:35;92997.03;;;7.27;100.00
65376;BME280;51976;47.332;9.404;2024-02-15T08:51:01;92996.81;;;7.33;100.00
65376;BME280;51976;47.332;9.404;2024-02-15T08:53:26;92970.56;;;7.40;100.00
65376;BME280;51976;47.332;9.404;2024-02-15T08:55:52;93012.41;;;7.94;100.00
65376;BME280;51976;47.332;9.404;2024-02-15T08:58:18;92968.38;;;7.85;100.00
65376;BME280;51976;47.332;9.404;2024-02-15T09:00:44;92996.13;;;8.10;100.00
65376;BME280;51976;47.332;9.404;2024-02-15T09:03:10;92995.94;;;8.32;100.00
65376;BME280;51976;47.332;9.404;2024-02-15T09:05:37;92989.25;;;8.50;100.00
65376;BME280;51976;47.332;9.404;2024-02-15T09:08:02;92915.31;;;8.22;100.00
65376;BME280;51976;47.332;9.404;2024-02-15T09:10:29;92981.53;;;8.69;100.00
65376;BME280;51976;47.332;9.404;2024-02-15T09:12:55;92976.97;;;8.69;100.00
65376;BME280;51976;47.332;9.404;2024-02-15T09:15:21;92969.16;;;8.68;100.00
65376;BME280;51976;47.332;9.404;2024-02-15T09:17:47;92955.72;;;8.73;100.00
65376;BME280;51976;47.332;9.404;2024-02-15T09:20:14;92899.53;;;8.61;100.00
65376;BME280;51976;47.332;9.404;2024-02-15T09:22:46;92968.88;;;9.25;100.00
65376;BME280;51976;47.332;9.404;2024-02-15T09:25:12;92946.25;;;9.31;100.00
65376;BME280;51976;47.332;9.404;2024-02-15T09:27:39;92892.25;;;9.12;100.00
65376;BME280;51976;47.332;9.404;2024-02-15T09:30:06;92948.63;;;9.63;100.00
65376;BME280;51976;47.332;9.404;2024-02-15T09:32:32;92892.16;;;9.48;100.00
65376;BME280;51976;47.332;9.404;2024-02-15T09:35:00;92905.53;;;9.73;100.00
65376;BME280;51976;47.332;9.404;2024-02-15T09:37:25;92893.94;;;9.78;100.00
65376;BME280;51976;47.332;9.404;2024-02-15T09:39:53;92928.00;;;10.08;100.00
65376;BME280;51976;47.332;9.404;2024-02-15T09:42:20;92909.44;;;10.06;100.00
65376;BME280;51976;47.332;9.404;2024-02-15T09:44:46;92935.47;;;10.26;100.00
65376;BME280;51976;47.332;9.404;2024-02-15T09:47:12;92869.91;;;9.92;100.00
65376;BME280;51976;47.332;9.404;2024-02-15T09:49:39;92941.78;;;10.56;100.00
65376;BME280;51976;47.332;9.404;2024-02-15T09:52:06;92925.31;;;10.57;100.00
65376;BME280;51976;47.332;9.404;2024-02-15T09:54:42;92881.16;;;10.48;100.00
65376;BME280;51976;47.332;9.404;2024-02-15T09:57:11;92935.94;;;10.82;100.00
65376;BME280;51976;47.332;9.404;2024-02-15T09:59:37;92870.00;;;10.65;100.00
65376;BME280;51976;47.332;9.404;2024-02-15T10:02:04;92923.34;;;11.02;100.00
65376;BME280;51976;47.332;9.404;2024-02-15T10:04:34;92921.06;;;11.19;100.00
65376;BME280;51976;47.332;9.404;2024-02-15T10:07:00;92920.38;;;11.32;100.00
65376;BME280;51976;47.332;9.404;2024-02-15T10:09:29;92869.38;;;11.07;100.00
65376;BME280;51976;47.332;9.404;2024-02-15T10:11:56;92917.75;;;11.51;100.00
65376;BME280;51976;47.332;9.404;2024-02-15T10:14:23;92916.09;;;11.55;100.00
65376;BME280;51976;47.332;9.404;2024-02-15T10:16:49;92844.47;;;11.15;100.00
65376;BME280;51976;47.332;9.404;2024-02-15T10:19:15;92860.97;;;11.37;100.00
65376;BME280;51976;47.332;9.404;2024-02-15T10:21:41;92910.97;;;11.82;100.00
65376;BME280;51976;47.332;9.404;2024-02-15T10:24:08;92893.50;;;11.99;100.00
65376;BME280;51976;47.332;9.404;2024-02-15T10:26:34;92850.91;;;11.91;100.00
65376;BME280;51976;47.332;9.404;2024-02-15T10:29:09;92897.72;;;12.29;100.00
65376;BME280;51976;47.332;9.404;2024-02-15T10:31:35;92896.47;;;12.40;100.00
65376;BME280;51976;47.332;9.404;2024-02-15T10:34:05;92889.81;;;12.51;100.00
65376;BME280;51976;47.332;9.404;2024-02-15T10:36:31;92845.44;;;12.33;100.00
65376;BME280;51976;47.332;9.404;2024-02-15T10:39:15;92885.19;;;12.70;100.00
65376;BME280;51976;47.332;9.404;2024-02-15T10:41:48;92820.75;;;12.40;100.00
65376;BME280;51976;47.332;9.404;2024-02-15T10:44:16;92828.97;;;12.67;100.00
65376;BME280;51976;47.332;9.404;2024-02-15T10:46:44;92873.53;;;13.07;100.00
65376;BME280;51976;47.332;9.404;2024-02-15T10:49:11;92819.72;;;12.87;100.00
65376;BME280;51976;47.332;9.404;2024-02-15T10:51:40;92815.38;;;13.05;100.00
65376;BME280;51976;47.332;9.404;2024-02-15T10:54:12;92860.38;;;13.47;100.00
65376;BME280;51976;47.332;9.404;2024-02-15T10:56:43;92832.09;;;13.53;100.00
65376;BME280;51976;47.332;9.404;2024-02-15T10:59:18;92810.03;;;13.46;100.00
65376;BME280;51976;47.332;9.404;2024-02-15T11:01:46;92856.91;;;13.87;100.00
65376;BME280;51976;47.332;9.404;2024-02-15T11:04:18;92797.19;;;13.51;100.00
65376;BME280;51976;47.332;9.404;2024-02-15T11:06:47;92837.63;;;13.75;100.00
65376;BME280;51976;47.332;9.404;2024-02-15T11:09:15;92840.63;;;13.87;100.00
65376;BME280;51976;47.332;9.404;2024-02-15T11:11:41;92845.94;;;13.79;100.00
65376;BME280;51976;47.332;9.404;2024-02-15T11:14:30;92771.69;;;13.11;100.00
65376;BME280;51976;47.332;9.404;2024-02-15T11:16:56;92815.06;;;13.39;100.00
65376;BME280;51976;47.332;9.404;2024-02-15T11:19:43;92815.75;;;13.44;100.00
65376;BME280;51976;47.332;9.404;2024-02-15T11:22:15;92819.16;;;13.50;100.00
65376;BME280;51976;47.332;9.404;2024-02-15T11:24:49;92836.13;;;13.55;100.00
65376;BME280;51976;47.332;9.404;2024-02-15T11:27:29;92766.50;;;13.29;100.00
65376;BME280;51976;47.332;9.404;2024-02-15T11:29:57;92827.28;;;13.77;100.00
65376;BME280;51976;47.332;9.404;2024-02-15T11:32:49;92813.34;;;13.43;100.00
65376;BME280;51976;47.332;9.404;2024-02-15T11:35:19;92825.97;;;13.47;100.00
65376;BME280;51976;47.332;9.404;2024-02-15T11:37:53;92756.03;;;12.95;100.00
65376;BME280;51976;47.332;9.404;2024-02-15T11:40:28;92780.50;;;13.03;100.00
65376;BME280;51976;47.332;9.404;2024-02-15T11:42:58;92826.56;;;13.31;100.00
65376;BME280;51976;47.332;9.404;2024-02-15T11:45:27;92781.09;;;13.00;100.00
65376;BME280;51976;47.332;9.404;2024-02-15T11:47:58;92830.88;;;13.32;100.00
65376;BME280;51976;47.332;9.404;2024-02-15T11:50:24;92831.28;;;13.25;100.00
65376;BME280;51976;47.332;9.404;2024-02-15T11:52:51;92762.59;;;12.75;100.00
65376;BME280;51976;47.332;9.404;2024-02-15T11:55:21;92823.59;;;13.13;100.00
65376;BME280;51976;47.332;9.404;2024-02-15T11:57:59;92808.44;;;12.99;100.00
65376;BME280;51976;47.332;9.404;2024-02-15T12:00:37;92781.63;;;12.70;100.00
65376;BME280;51976;47.332;9.404;2024-02-15T12:03:23;92838.19;;;12.85;100.00
65376;BME280;51976;47.332;9.404;2024-02-15T12:06:08;92831.75;;;12.81;100.00
65376;BME280;51976;47.332;9.404;2024-02-15T12:08:54;92828.75;;;12.82;100.00
65376;BME280;51976;47.332;9.404;2024-02-15T12:11:40;92825.94;;;12.87;100.00
65376;BME280;51976;47.332;9.404;2024-02-15T12:14:25;92828.25;;;12.94;100.00
65376;BME280;51976;47.332;9.404;2024-02-15T12:17:12;92822.34;;;12.92;100.00
65376;BME280;51976;47.332;9.404;2024-02-15T12:20:01;92822.94;;;12.89;100.00
65376;BME280;51976;47.332;9.404;2024-02-15T12:22:43;92812.25;;;12.98;100.00
65376;BME280;51976;47.332;9.404;2024-02-15T12:25:14;92805.56;;;13.09;100.00
65376;BME280;51976;47.332;9.404;2024-02-15T12:27:41;92746.38;;;12.75;100.00
65376;BME280;51976;47.332;9.404;2024-02-15T12:30:13;92752.94;;;13.01;100.00
65376;BME280;51976;47.332;9.404;2024-02-15T12:32:39;92806.22;;;13.47;100.00
65376;BME280;51976;47.332;9.404;2024-02-15T12:35:11;92791.69;;;13.57;100.00
65376;BME280;51976;47.332;9.404;2024-02-15T12:37:45;92793.69;;;13.65;100.00
65376;BME280;51976;47.332;9.404;2024-02-15T12:40:15;92738.41;;;13.11;100.00
65376;BME280;51976;47.332;9.404;2024-02-15T12:42:45;92739.69;;;13.13;100.00
65376;BME280;51976;47.332;9.404;2024-02-15T12:45:16;92803.63;;;13.55;100.00
65376;BME280;51976;47.332;9.404;2024-02-15T12:47:49;92806.84;;;13.58;100.00
65376;BME280;51976;47.332;9.404;2024-02-15T12:50:19;92805.41;;;13.46;100.00
65376;BME280;51976;47.332;9.404;2024-02-15T12:52:45;92803.50;;;13.47;100.00
65376;BME280;51976;47.332;9.404;2024-02-15T12:55:17;92781.94;;;13.42;100.00
65376;BME280;51976;47.332;9.404;2024-02-15T12:57:48;92797.59;;;13.31;100.00
65376;BME280;51976;47.332;9.404;2024-02-15T13:00:25;92800.09;;;13.41;100.00
65376;BME280;51976;47.332;9.404;2024-02-15T13:02:55;92744.66;;;13.25;100.00